sensor_id;sensor_type;location;lat;lon;timestamp;P1;durP1;ratioP1;P2;durP2;ratioP2
50789;SDS011;37287;47.554;7.844;2023-07-08T01:07:35;6.43;;;3.00;;
50789;SDS011;37287;47.554;7.844;2023-07-08T01:10:06;7.20;;;3.05;;
50789;SDS011;37287;47.554;7.844;2023-07-08T01:12:43;8.38;;;3.00;;
50789;SDS011;37287;47.554;7.844;2023-07-08T01:15:13;5.30;;;2.80;;
50789;SDS011;37287;47.554;7.844;2023-07-08T01:17:44;4.38;;;2.95;;
50789;SDS011;37287;47.554;7.844;2023-07-08T01:20:11;5.40;;;3.45;;
50789;SDS011;37287;47.554;7.844;2023-07-08T01:22:41;4.35;;;2.65;;
50789;SDS011;37287;47.554;7.844;2023-07-08T01:25:08;4.40;;;3.10;;
50789;SDS011;37287;47.554;7.844;2023-07-08T01:27:37;7.05;;;3.00;;
50789;SDS011;37287;47.554;7.844;2023-07-08T01:30:06;5.95;;;2.85;;
50789;SDS011;37287;47.554;7.844;2023-07-08T01:32:34;4.47;;;2.88;;
50789;SDS011;37287;47.554;7.844;2023-07-08T01:35:04;3.05;;;2.47;;
50789;SDS011;37287;47.554;7.844;2023-07-08T01:37:38;4.35;;;3.28;;
50789;SDS011;37287;47.554;7.844;2023-07-08T01:42:55;4.03;;;2.63;;
50789;SDS011;37287;47.554;7.844;2023-07-08T01:45:25;8.30;;;2.65;;
50789;SDS011;37287;47.554;7.844;2023-07-08T01:48:01;2.58;;;2.00;;
50789;SDS011;37287;47.554;7.844;2023-07-08T01:50:31;4.93;;;2.60;;
50789;SDS011;37287;47.554;7.844;2023-07-08T01:53:01;2.25;;;1.88;;
50789;SDS011;37287;47.554;7.844;2023-07-08T01:55:33;2.53;;;1.60;;
50789;SDS011;37287;47.554;7.844;2023-07-08T01:58:02;3.58;;;2.05;;
50789;SDS011;37287;47.554;7.844;2023-07-08T02:00:28;4.30;;;1.90;;
50789;SDS011;37287;47.554;7.844;2023-07-08T02:02:55;2.80;;;2.00;;
50789;SDS011;37287;47.554;7.844;2023-07-08T02:05:22;3.47;;;2.00;;
50789;SDS011;37287;47.554;7.844;2023-07-08T02:07:49;7.80;;;2.30;;
50789;SDS011;37287;47.554;7.844;2023-07-08T02:10:17;5.80;;;2.28;;
50789;SDS011;37287;47.554;7.844;2023-07-08T02:12:44;4.07;;;2.50;;
50789;SDS011;37287;47.554;7.844;2023-07-08T02:15:15;2.97;;;1.90;;
50789;SDS011;37287;47.554;7.844;2023-07-08T02:17:41;6.15;;;2.03;;
50789;SDS011;37287;47.554;7.844;2023-07-08T02:20:08;11.55;;;2.20;;
50789;SDS011;37287;47.554;7.844;2023-07-08T02:22:37;4.10;;;2.08;;
50789;SDS011;37287;47.554;7.844;2023-07-08T02:25:04;7.07;;;2.00;;
50789;SDS011;37287;47.554;7.844;2023-07-08T02:27:31;3.50;;;1.67;;
50789;SDS011;37287;47.554;7.844;2023-07-08T02:30:02;3.83;;;1.83;;
50789;SDS011;37287;47.554;7.844;2023-07-08T02:32:28;3.08;;;1.73;;
50789;SDS011;37287;47.554;7.844;2023-07-08T02:34:55;4.13;;;2.15;;
50789;SDS011;37287;47.554;7.844;2023-07-08T02:37:22;2.63;;;1.55;;
50789;SDS011;37287;47.554;7.844;2023-07-08T02:39:48;3.38;;;1.70;;
50789;SDS011;37287;47.554;7.844;2023-07-08T02:42:15;3.33;;;1.85;;
50789;SDS011;37287;47.554;7.844;2023-07-08T02:44:41;4.13;;;2.08;;
50789;SDS011;37287;47.554;7.844;2023-07-08T02:47:08;4.60;;;2.20;;
50789;SDS011;37287;47.554;7.844;2023-07-08T02:49:34;4.00;;;1.90;;
50789;SDS011;37287;47.554;7.844;2023-07-08T02:52:01;3.75;;;1.95;;
50789;SDS011;37287;47.554;7.844;2023-07-08T02:54:27;3.72;;;2.08;;
50789;SDS011;37287;47.554;7.844;2023-07-08T02:56:54;6.50;;;2.42;;
50789;SDS011;37287;47.554;7.844;2023-07-08T02:59:21;2.58;;;1.77;;
50789;SDS011;37287;47.554;7.844;2023-07-08T03:01:49;3.60;;;2.10;;
50789;SDS011;37287;47.554;7.844;2023-07-08T03:04:16;6.75;;;2.00;;
50789;SDS011;37287;47.554;7.844;2023-07-08T03:06:45;6.25;;;2.20;;
50789;SDS011;37287;47.554;7.844;2023-07-08T03:09:12;4.10;;;2.08;;
50789;SDS011;37287;47.554;7.844;2023-07-08T03:11:39;5.50;;;1.98;;
50789;SDS011;37287;47.554;7.844;2023-07-08T03:14:06;3.65;;;1.85;;
50789;SDS011;37287;47.554;7.844;2023-07-08T03:16:33;6.82;;;2.22;;
50789;SDS011;37287;47.554;7.844;2023-07-08T03:19:00;3.25;;;2.25;;
50789;SDS011;37287;47.554;7.844;2023-07-08T03:21:26;3.13;;;2.03;;
50789;SDS011;37287;47.554;7.844;2023-07-08T03:23:53;4.18;;;2.17;;
50789;SDS011;37287;47.554;7.844;2023-07-08T03:26:24;6.60;;;3.00;;
50789;SDS011;37287;47.554;7.844;2023-07-08T03:28:58;4.10;;;2.17;;
50789;SDS011;37287;47.554;7.844;2023-07-08T03:31:24;3.75;;;2.17;;
50789;SDS011;37287;47.554;7.844;2023-07-08T03:33:51;4.57;;;2.33;;
50789;SDS011;37287;47.554;7.844;2023-07-08T03:36:18;5.68;;;2.30;;
50789;SDS011;37287;47.554;7.844;2023-07-08T03:38:52;6.72;;;2.45;;
50789;SDS011;37287;47.554;7.844;2023-07-08T03:41:21;3.13;;;2.10;;
50789;SDS011;37287;47.554;7.844;2023-07-08T03:43:49;5.32;;;2.28;;
50789;SDS011;37287;47.554;7.844;2023-07-08T03:46:19;6.32;;;2.20;;
50789;SDS011;37287;47.554;7.844;2023-07-08T03:48:47;4.82;;;2.33;;
50789;SDS011;37287;47.554;7.844;2023-07-08T03:51:36;5.38;;;2.25;;
50789;SDS011;37287;47.554;7.844;2023-07-08T03:54:03;3.15;;;2.30;;
50789;SDS011;37287;47.554;7.844;2023-07-08T03:56:30;3.95;;;2.33;;
50789;SDS011;37287;47.554;7.844;2023-07-08T03:58:59;3.60;;;1.80;;
50789;SDS011;37287;47.554;7.844;2023-07-08T04:01:26;4.78;;;2.13;;
50789;SDS011;37287;47.554;7.844;2023-07-08T04:03:53;3.08;;;2.08;;
50789;SDS011;37287;47.554;7.844;2023-07-08T04:06:21;3.40;;;2.00;;
50789;SDS011;37287;47.554;7.844;2023-07-08T04:08:49;3.50;;;2.10;;
50789;SDS011;37287;47.554;7.844;2023-07-08T04:11:20;2.75;;;2.28;;
50789;SDS011;37287;47.554;7.844;2023-07-08T04:13:53;3.95;;;2.08;;
50789;SDS011;37287;47.554;7.844;2023-07-08T04:16:25;5.97;;;2.47;;
50789;SDS011;37287;47.554;7.844;2023-07-08T04:18:54;6.18;;;3.10;;
50789;SDS011;37287;47.554;7.844;2023-07-08T04:21:22;5.43;;;2.67;;
50789;SDS011;37287;47.554;7.844;2023-07-08T04:23:51;5.05;;;2.53;;
50789;SDS011;37287;47.554;7.844;2023-07-08T04:26:18;13.13;;;2.75;;
50789;SDS011;37287;47.554;7.844;2023-07-08T04:28:47;5.45;;;2.50;;
50789;SDS011;37287;47.554;7.844;2023-07-08T04:31:14;5.30;;;2.20;;
50789;SDS011;37287;47.554;7.844;2023-07-08T04:33:41;2.65;;;1.88;;
50789;SDS011;37287;47.554;7.844;2023-07-08T04:36:11;5.43;;;1.90;;
50789;SDS011;37287;47.554;7.844;2023-07-08T04:38:39;5.13;;;2.28;;
50789;SDS011;37287;47.554;7.844;2023-07-08T04:41:08;10.38;;;2.58;;
50789;SDS011;37287;47.554;7.844;2023-07-08T04:43:34;3.65;;;2.50;;
50789;SDS011;37287;47.554;7.844;2023-07-08T04:46:01;4.55;;;2.90;;
50789;SDS011;37287;47.554;7.844;2023-07-08T04:48:28;5.25;;;2.75;;
50789;SDS011;37287;47.554;7.844;2023-07-08T04:50:54;5.05;;;2.70;;
50789;SDS011;37287;47.554;7.844;2023-07-08T04:53:21;3.45;;;2.40;;
50789;SDS011;37287;47.554;7.844;2023-07-08T04:55:53;4.97;;;2.80;;
50789;SDS011;37287;47.554;7.844;2023-07-08T04:58:21;8.77;;;2.67;;
50789;SDS011;37287;47.554;7.844;2023-07-08T05:00:48;4.38;;;3.10;;
50789;SDS011;37287;47.554;7.844;2023-07-08T05:03:15;6.45;;;3.22;;
50789;SDS011;37287;47.554;7.844;2023-07-08T05:05:43;4.95;;;3.70;;
50789;SDS011;37287;47.554;7.844;2023-07-08T05:08:11;5.85;;;3.88;;
50789;SDS011;37287;47.554;7.844;2023-07-08T05:10:38;4.97;;;3.50;;
50789;SDS011;37287;47.554;7.844;2023-07-08T05:13:05;8.50;;;5.32;;
50789;SDS011;37287;47.554;7.844;2023-07-08T05:15:33;6.13;;;4.63;;
50789;SDS011;37287;47.554;7.844;2023-07-08T05:18:02;9.27;;;4.20;;
50789;SDS011;37287;47.554;7.844;2023-07-08T05:20:29;7.00;;;3.47;;
50789;SDS011;37287;47.554;7.844;2023-07-08T05:22:57;4.50;;;2.85;;
50789;SDS011;37287;47.554;7.844;2023-07-08T05:25:23;4.20;;;3.05;;
50789;SDS011;37287;47.554;7.844;2023-07-08T05:27:51;4.03;;;3.00;;
50789;SDS011;37287;47.554;7.844;2023-07-08T05:30:17;4.60;;;2.97;;
50789;SDS011;37287;47.554;7.844;2023-07-08T05:32:45;4.60;;;2.80;;
50789;SDS011;37287;47.554;7.844;2023-07-08T05:35:11;6.30;;;2.88;;
50789;SDS011;37287;47.554;7.844;2023-07-08T05:37:38;4.65;;;2.70;;
50789;SDS011;37287;47.554;7.844;2023-07-08T05:40:07;6.90;;;2.88;;
50789;SDS011;37287;47.554;7.844;2023-07-08T05:42:34;3.28;;;2.97;;
50789;SDS011;37287;47.554;7.844;2023-07-08T05:45:02;4.97;;;2.95;;
50789;SDS011;37287;47.554;7.844;2023-07-08T05:47:30;4.30;;;2.80;;
50789;SDS011;37287;47.554;7.844;2023-07-08T05:49:56;3.00;;;2.67;;
50789;SDS011;37287;47.554;7.844;2023-07-08T05:52:23;3.45;;;2.85;;
50789;SDS011;37287;47.554;7.844;2023-07-08T05:54:50;4.30;;;2.38;;
50789;SDS011;37287;47.554;7.844;2023-07-08T05:57:16;2.83;;;2.28;;
50789;SDS011;37287;47.554;7.844;2023-07-08T05:59:43;3.55;;;2.35;;
50789;SDS011;37287;47.554;7.844;2023-07-08T06:02:10;2.40;;;2.00;;
50789;SDS011;37287;47.554;7.844;2023-07-08T06:04:39;3.35;;;2.25;;
50789;SDS011;37287;47.554;7.844;2023-07-08T06:07:06;2.85;;;2.10;;
50789;SDS011;37287;47.554;7.844;2023-07-08T06:09:33;5.88;;;2.10;;
50789;SDS011;37287;47.554;7.844;2023-07-08T06:12:00;2.00;;;1.80;;
50789;SDS011;37287;47.554;7.844;2023-07-08T06:14:28;6.25;;;1.90;;
50789;SDS011;37287;47.554;7.844;2023-07-08T06:17:01;3.70;;;2.25;;
50789;SDS011;37287;47.554;7.844;2023-07-08T06:19:28;2.13;;;1.60;;
50789;SDS011;37287;47.554;7.844;2023-07-08T06:21:55;2.67;;;1.80;;
50789;SDS011;37287;47.554;7.844;2023-07-08T06:24:41;2.05;;;1.80;;
50789;SDS011;37287;47.554;7.844;2023-07-08T06:27:08;2.67;;;1.80;;
50789;SDS011;37287;47.554;7.844;2023-07-08T06:29:36;2.50;;;1.88;;
50789;SDS011;37287;47.554;7.844;2023-07-08T06:32:02;7.43;;;2.22;;
50789;SDS011;37287;47.554;7.844;2023-07-08T06:34:29;1.58;;;1.48;;
50789;SDS011;37287;47.554;7.844;2023-07-08T06:37:20;2.17;;;1.70;;
50789;SDS011;37287;47.554;7.844;2023-07-08T06:39:46;4.35;;;1.90;;
50789;SDS011;37287;47.554;7.844;2023-07-08T06:42:15;1.50;;;1.38;;
50789;SDS011;37287;47.554;7.844;2023-07-08T06:44:41;2.28;;;1.60;;
50789;SDS011;37287;47.554;7.844;2023-07-08T06:47:19;2.45;;;1.48;;
50789;SDS011;37287;47.554;7.844;2023-07-08T06:49:47;3.42;;;1.60;;
50789;SDS011;37287;47.554;7.844;2023-07-08T06:52:14;1.50;;;1.40;;
50789;SDS011;37287;47.554;7.844;2023-07-08T06:54:41;1.65;;;1.55;;
50789;SDS011;37287;47.554;7.844;2023-07-08T06:57:07;2.88;;;1.52;;
50789;SDS011;37287;47.554;7.844;2023-07-08T06:59:34;2.50;;;2.03;;
50789;SDS011;37287;47.554;7.844;2023-07-08T07:02:01;6.00;;;2.08;;
50789;SDS011;37287;47.554;7.844;2023-07-08T07:04:27;4.03;;;1.80;;
50789;SDS011;37287;47.554;7.844;2023-07-08T07:06:54;4.05;;;2.00;;
50789;SDS011;37287;47.554;7.844;2023-07-08T07:09:21;3.40;;;1.90;;
50789;SDS011;37287;47.554;7.844;2023-07-08T07:11:47;3.35;;;2.00;;
50789;SDS011;37287;47.554;7.844;2023-07-08T07:14:14;3.00;;;1.85;;
50789;SDS011;37287;47.554;7.844;2023-07-08T07:16:44;2.10;;;1.88;;
50789;SDS011;37287;47.554;7.844;2023-07-08T07:19:30;2.85;;;1.85;;
50789;SDS011;37287;47.554;7.844;2023-07-08T07:21:57;2.05;;;1.83;;
50789;SDS011;37287;47.554;7.844;2023-07-08T07:24:26;3.78;;;1.80;;
50789;SDS011;37287;47.554;7.844;2023-07-08T07:26:52;3.10;;;1.80;;
50789;SDS011;37287;47.554;7.844;2023-07-08T07:29:21;2.08;;;1.65;;
50789;SDS011;37287;47.554;7.844;2023-07-08T07:31:48;3.40;;;1.88;;
50789;SDS011;37287;47.554;7.844;2023-07-08T07:34:15;3.50;;;2.30;;
50789;SDS011;37287;47.554;7.844;2023-07-08T07:36:42;4.43;;;2.20;;
50789;SDS011;37287;47.554;7.844;2023-07-08T07:39:09;2.60;;;2.10;;
50789;SDS011;37287;47.554;7.844;2023-07-08T07:41:35;5.97;;;1.92;;
50789;SDS011;37287;47.554;7.844;2023-07-08T07:44:02;2.55;;;1.80;;
50789;SDS011;37287;47.554;7.844;2023-07-08T07:46:29;4.65;;;2.00;;
50789;SDS011;37287;47.554;7.844;2023-07-08T07:48:55;5.30;;;2.00;;
50789;SDS011;37287;47.554;7.844;2023-07-08T07:51:25;4.53;;;2.17;;
50789;SDS011;37287;47.554;7.844;2023-07-08T07:53:51;3.22;;;1.90;;
50789;SDS011;37287;47.554;7.844;2023-07-08T07:56:19;6.13;;;1.75;;
50789;SDS011;37287;47.554;7.844;2023-07-08T07:58:45;2.15;;;1.70;;
50789;SDS011;37287;47.554;7.844;2023-07-08T08:01:12;5.22;;;1.85;;
50789;SDS011;37287;47.554;7.844;2023-07-08T08:03:39;2.42;;;1.67;;
50789;SDS011;37287;47.554;7.844;2023-07-08T08:06:06;1.60;;;1.50;;
50789;SDS011;37287;47.554;7.844;2023-07-08T08:08:33;3.78;;;1.80;;
50789;SDS011;37287;47.554;7.844;2023-07-08T08:11:03;2.22;;;1.67;;
50789;SDS011;37287;47.554;7.844;2023-07-08T08:13:30;1.83;;;1.50;;
50789;SDS011;37287;47.554;7.844;2023-07-08T08:15:57;5.60;;;1.50;;
50789;SDS011;37287;47.554;7.844;2023-07-08T08:18:25;5.85;;;1.75;;
50789;SDS011;37287;47.554;7.844;2023-07-08T08:20:52;2.33;;;1.80;;
50789;SDS011;37287;47.554;7.844;2023-07-08T08:23:22;3.55;;;1.63;;
50789;SDS011;37287;47.554;7.844;2023-07-08T08:25:52;3.35;;;1.60;;
50789;SDS011;37287;47.554;7.844;2023-07-08T08:28:18;3.28;;;1.67;;
50789;SDS011;37287;47.554;7.844;2023-07-08T08:30:49;1.60;;;1.50;;
50789;SDS011;37287;47.554;7.844;2023-07-08T08:33:16;2.65;;;1.60;;
50789;SDS011;37287;47.554;7.844;2023-07-08T08:35:44;3.47;;;1.60;;
50789;SDS011;37287;47.554;7.844;2023-07-08T08:38:11;2.47;;;1.60;;
50789;SDS011;37287;47.554;7.844;2023-07-08T08:40:39;7.60;;;1.88;;
50789;SDS011;37287;47.554;7.844;2023-07-08T08:43:12;3.75;;;1.85;;
50789;SDS011;37287;47.554;7.844;2023-07-08T08:48:35;4.13;;;1.65;;
50789;SDS011;37287;47.554;7.844;2023-07-08T08:51:23;2.53;;;1.75;;
50789;SDS011;37287;47.554;7.844;2023-07-08T08:53:53;3.10;;;1.60;;
50789;SDS011;37287;47.554;7.844;2023-07-08T08:56:31;1.67;;;1.58;;
50789;SDS011;37287;47.554;7.844;2023-07-08T09:04:52;1.98;;;1.58;;
50789;SDS011;37287;47.554;7.844;2023-07-08T09:07:19;1.98;;;1.48;;
50789;SDS011;37287;47.554;7.844;2023-07-08T09:09:57;2.65;;;1.52;;
50789;SDS011;37287;47.554;7.844;2023-07-08T09:12:30;2.00;;;1.45;;
50789;SDS011;37287;47.554;7.844;2023-07-08T09:15:03;2.25;;;1.60;;
50789;SDS011;37287;47.554;7.844;2023-07-08T09:17:38;3.22;;;1.55;;
50789;SDS011;37287;47.554;7.844;2023-07-08T09:25:59;4.30;;;1.70;;
50789;SDS011;37287;47.554;7.844;2023-07-08T09:31:05;2.38;;;1.80;;
50789;SDS011;37287;47.554;7.844;2023-07-08T09:33:37;2.95;;;1.95;;
50789;SDS011;37287;47.554;7.844;2023-07-08T09:36:15;4.13;;;1.92;;
50789;SDS011;37287;47.554;7.844;2023-07-08T09:38:46;3.05;;;1.90;;
50789;SDS011;37287;47.554;7.844;2023-07-08T09:41:22;5.57;;;2.15;;
50789;SDS011;37287;47.554;7.844;2023-07-08T09:44:08;2.83;;;2.05;;
50789;SDS011;37287;47.554;7.844;2023-07-08T09:46:37;2.63;;;2.00;;
50789;SDS011;37287;47.554;7.844;2023-07-08T09:52:02;2.28;;;1.75;;
50789;SDS011;37287;47.554;7.844;2023-07-08T09:54:30;3.38;;;1.77;;
50789;SDS011;37287;47.554;7.844;2023-07-08T09:57:02;2.95;;;1.90;;
50789;SDS011;37287;47.554;7.844;2023-07-08T09:59:43;2.83;;;1.80;;
50789;SDS011;37287;47.554;7.844;2023-07-08T10:02:27;2.60;;;1.77;;
50789;SDS011;37287;47.554;7.844;2023-07-08T10:04:55;2.72;;;2.00;;
50789;SDS011;37287;47.554;7.844;2023-07-08T10:07:23;2.00;;;1.80;;
50789;SDS011;37287;47.554;7.844;2023-07-08T10:09:54;4.03;;;2.35;;
50789;SDS011;37287;47.554;7.844;2023-07-08T10:12:23;2.67;;;1.65;;
50789;SDS011;37287;47.554;7.844;2023-07-08T10:14:51;2.10;;;1.73;;
50789;SDS011;37287;47.554;7.844;2023-07-08T10:17:21;5.88;;;1.73;;
50789;SDS011;37287;47.554;7.844;2023-07-08T10:19:48;2.35;;;1.80;;
50789;SDS011;37287;47.554;7.844;2023-07-08T10:25:32;2.00;;;1.73;;
50789;SDS011;37287;47.554;7.844;2023-07-08T10:31:27;6.70;;;2.13;;
50789;SDS011;37287;47.554;7.844;2023-07-08T10:34:22;3.25;;;1.90;;
50789;SDS011;37287;47.554;7.844;2023-07-08T10:45:25;2.75;;;2.30;;
50789;SDS011;37287;47.554;7.844;2023-07-08T10:51:22;3.85;;;2.22;;
50789;SDS011;37287;47.554;7.844;2023-07-08T10:57:10;2.80;;;2.20;;
50789;SDS011;37287;47.554;7.844;2023-07-08T10:59:47;2.75;;;2.00;;
50789;SDS011;37287;47.554;7.844;2023-07-08T11:05:41;3.20;;;2.03;;
50789;SDS011;37287;47.554;7.844;2023-07-08T11:08:16;4.22;;;2.13;;
50789;SDS011;37287;47.554;7.844;2023-07-08T11:10:51;3.63;;;2.20;;
50789;SDS011;37287;47.554;7.844;2023-07-08T11:13:45;4.53;;;2.45;;
50789;SDS011;37287;47.554;7.844;2023-07-08T11:16:30;3.25;;;2.17;;
50789;SDS011;37287;47.554;7.844;2023-07-08T11:21:58;3.80;;;2.58;;
50789;SDS011;37287;47.554;7.844;2023-07-08T11:24:32;2.17;;;1.90;;
50789;SDS011;37287;47.554;7.844;2023-07-08T11:27:29;2.88;;;2.13;;
50789;SDS011;37287;47.554;7.844;2023-07-08T11:32:38;2.53;;;2.00;;
50789;SDS011;37287;47.554;7.844;2023-07-08T11:35:13;2.35;;;1.80;;
50789;SDS011;37287;47.554;7.844;2023-07-08T11:37:46;4.45;;;2.05;;
50789;SDS011;37287;47.554;7.844;2023-07-08T11:40:20;3.00;;;2.17;;
50789;SDS011;37287;47.554;7.844;2023-07-08T11:42:49;2.50;;;1.88;;
50789;SDS011;37287;47.554;7.844;2023-07-08T11:45:27;3.92;;;1.90;;
50789;SDS011;37287;47.554;7.844;2023-07-08T11:48:13;3.20;;;2.15;;
50789;SDS011;37287;47.554;7.844;2023-07-08T11:50:44;5.05;;;2.10;;
50789;SDS011;37287;47.554;7.844;2023-07-08T11:53:30;2.33;;;1.90;;
50789;SDS011;37287;47.554;7.844;2023-07-08T12:04:35;4.03;;;2.25;;
50789;SDS011;37287;47.554;7.844;2023-07-08T12:07:22;4.15;;;2.10;;
50789;SDS011;37287;47.554;7.844;2023-07-08T12:10:04;2.20;;;2.00;;
50789;SDS011;37287;47.554;7.844;2023-07-08T12:12:37;2.90;;;1.90;;
50789;SDS011;37287;47.554;7.844;2023-07-08T12:15:12;3.47;;;1.95;;
50789;SDS011;37287;47.554;7.844;2023-07-08T12:17:44;3.28;;;1.92;;
50789;SDS011;37287;47.554;7.844;2023-07-08T12:20:45;5.05;;;1.80;;
50789;SDS011;37287;47.554;7.844;2023-07-08T12:23:13;3.80;;;2.10;;
50789;SDS011;37287;47.554;7.844;2023-07-08T12:25:48;3.20;;;1.90;;
50789;SDS011;37287;47.554;7.844;2023-07-08T12:28:16;1.85;;;1.70;;
50789;SDS011;37287;47.554;7.844;2023-07-08T12:30:52;2.15;;;1.55;;
50789;SDS011;37287;47.554;7.844;2023-07-08T12:33:28;3.05;;;2.20;;
50789;SDS011;37287;47.554;7.844;2023-07-08T12:35:59;5.90;;;2.40;;
50789;SDS011;37287;47.554;7.844;2023-07-08T12:38:28;2.63;;;2.35;;
50789;SDS011;37287;47.554;7.844;2023-07-08T12:41:10;3.00;;;2.10;;
50789;SDS011;37287;47.554;7.844;2023-07-08T12:43:55;5.13;;;2.35;;
50789;SDS011;37287;47.554;7.844;2023-07-08T12:46:25;2.13;;;1.92;;
50789;SDS011;37287;47.554;7.844;2023-07-08T12:48:55;3.92;;;2.30;;
50789;SDS011;37287;47.554;7.844;2023-07-08T12:51:26;3.75;;;2.00;;
50789;SDS011;37287;47.554;7.844;2023-07-08T12:53:53;4.07;;;2.30;;
50789;SDS011;37287;47.554;7.844;2023-07-08T12:56:21;3.17;;;2.25;;
50789;SDS011;37287;47.554;7.844;2023-07-08T12:58:50;7.45;;;2.10;;
50789;SDS011;37287;47.554;7.844;2023-07-08T13:01:21;3.08;;;2.00;;
50789;SDS011;37287;47.554;7.844;2023-07-08T13:03:52;5.55;;;2.45;;
50789;SDS011;37287;47.554;7.844;2023-07-08T13:06:24;4.50;;;2.13;;
50789;SDS011;37287;47.554;7.844;2023-07-08T13:08:54;2.90;;;2.40;;
50789;SDS011;37287;47.554;7.844;2023-07-08T13:11:28;2.70;;;2.20;;
50789;SDS011;37287;47.554;7.844;2023-07-08T13:13:59;6.35;;;2.40;;
50789;SDS011;37287;47.554;7.844;2023-07-08T13:19:00;3.97;;;2.30;;
50789;SDS011;37287;47.554;7.844;2023-07-08T13:21:27;4.15;;;1.98;;
50789;SDS011;37287;47.554;7.844;2023-07-08T13:23:56;3.97;;;2.00;;
50789;SDS011;37287;47.554;7.844;2023-07-08T13:26:28;3.03;;;2.08;;
50789;SDS011;37287;47.554;7.844;2023-07-08T13:29:05;3.53;;;2.15;;
50789;SDS011;37287;47.554;7.844;2023-07-08T13:31:39;3.50;;;2.30;;
50789;SDS011;37287;47.554;7.844;2023-07-08T13:34:08;3.67;;;1.98;;
50789;SDS011;37287;47.554;7.844;2023-07-08T13:36:42;2.45;;;2.10;;
50789;SDS011;37287;47.554;7.844;2023-07-08T13:39:30;2.90;;;2.10;;
50789;SDS011;37287;47.554;7.844;2023-07-08T13:41:59;3.00;;;2.05;;
50789;SDS011;37287;47.554;7.844;2023-07-08T13:44:27;2.08;;;1.73;;
50789;SDS011;37287;47.554;7.844;2023-07-08T13:46:55;3.10;;;2.13;;
50789;SDS011;37287;47.554;7.844;2023-07-08T13:49:38;4.03;;;2.10;;
50789;SDS011;37287;47.554;7.844;2023-07-08T13:54:41;2.25;;;1.92;;
50789;SDS011;37287;47.554;7.844;2023-07-08T13:57:11;2.20;;;1.90;;
50789;SDS011;37287;47.554;7.844;2023-07-08T13:59:41;2.85;;;2.03;;
50789;SDS011;37287;47.554;7.844;2023-07-08T14:02:19;2.65;;;1.50;;
50789;SDS011;37287;47.554;7.844;2023-07-08T14:04:49;2.63;;;1.90;;
50789;SDS011;37287;47.554;7.844;2023-07-08T14:07:17;2.47;;;1.70;;
50789;SDS011;37287;47.554;7.844;2023-07-08T14:09:51;3.72;;;2.15;;
50789;SDS011;37287;47.554;7.844;2023-07-08T14:12:18;2.22;;;1.80;;
50789;SDS011;37287;47.554;7.844;2023-07-08T14:14:49;2.78;;;1.95;;
50789;SDS011;37287;47.554;7.844;2023-07-08T14:17:19;2.20;;;1.70;;
50789;SDS011;37287;47.554;7.844;2023-07-08T14:19:50;1.90;;;1.80;;
50789;SDS011;37287;47.554;7.844;2023-07-08T14:22:22;1.65;;;1.40;;
50789;SDS011;37287;47.554;7.844;2023-07-08T14:24:51;2.53;;;1.67;;
50789;SDS011;37287;47.554;7.844;2023-07-08T14:27:18;2.03;;;1.60;;
50789;SDS011;37287;47.554;7.844;2023-07-08T14:29:46;2.22;;;1.70;;
50789;SDS011;37287;47.554;7.844;2023-07-08T14:34:54;2.22;;;1.65;;
50789;SDS011;37287;47.554;7.844;2023-07-08T14:37:23;1.60;;;1.50;;
50789;SDS011;37287;47.554;7.844;2023-07-08T14:39:52;1.73;;;1.58;;
50789;SDS011;37287;47.554;7.844;2023-07-08T14:42:18;3.67;;;1.58;;
50789;SDS011;37287;47.554;7.844;2023-07-08T14:44:47;2.95;;;1.60;;
50789;SDS011;37287;47.554;7.844;2023-07-08T14:47:17;1.60;;;1.50;;
50789;SDS011;37287;47.554;7.844;2023-07-08T14:49:45;1.60;;;1.50;;
50789;SDS011;37287;47.554;7.844;2023-07-08T14:52:12;2.33;;;1.73;;
50789;SDS011;37287;47.554;7.844;2023-07-08T14:54:39;1.75;;;1.63;;
50789;SDS011;37287;47.554;7.844;2023-07-08T14:57:06;5.22;;;1.50;;
50789;SDS011;37287;47.554;7.844;2023-07-08T14:59:34;1.60;;;1.20;;
50789;SDS011;37287;47.554;7.844;2023-07-08T15:02:02;2.75;;;1.40;;
50789;SDS011;37287;47.554;7.844;2023-07-08T15:04:41;1.50;;;1.40;;
50789;SDS011;37287;47.554;7.844;2023-07-08T15:07:10;1.40;;;1.30;;
50789;SDS011;37287;47.554;7.844;2023-07-08T15:09:41;2.15;;;1.63;;
50789;SDS011;37287;47.554;7.844;2023-07-08T15:12:09;1.90;;;1.40;;
50789;SDS011;37287;47.554;7.844;2023-07-08T15:14:38;1.40;;;1.23;;
50789;SDS011;37287;47.554;7.844;2023-07-08T15:17:15;1.48;;;1.35;;
50789;SDS011;37287;47.554;7.844;2023-07-08T15:19:43;1.67;;;1.58;;
50789;SDS011;37287;47.554;7.844;2023-07-08T15:22:11;1.45;;;1.30;;
50789;SDS011;37287;47.554;7.844;2023-07-08T15:24:37;1.67;;;1.23;;
50789;SDS011;37287;47.554;7.844;2023-07-08T15:27:04;1.95;;;1.60;;
50789;SDS011;37287;47.554;7.844;2023-07-08T15:29:32;1.70;;;1.20;;
50789;SDS011;37287;47.554;7.844;2023-07-08T15:31:59;1.60;;;1.50;;
50789;SDS011;37287;47.554;7.844;2023-07-08T15:34:26;2.80;;;1.27;;
50789;SDS011;37287;47.554;7.844;2023-07-08T15:36:54;1.70;;;1.40;;
50789;SDS011;37287;47.554;7.844;2023-07-08T15:39:20;1.40;;;1.30;;
50789;SDS011;37287;47.554;7.844;2023-07-08T15:41:47;3.05;;;1.50;;
50789;SDS011;37287;47.554;7.844;2023-07-08T15:44:14;2.00;;;1.45;;
50789;SDS011;37287;47.554;7.844;2023-07-08T15:46:44;2.47;;;1.48;;
50789;SDS011;37287;47.554;7.844;2023-07-08T15:49:16;1.92;;;1.27;;
50789;SDS011;37287;47.554;7.844;2023-07-08T15:51:50;1.60;;;1.50;;
50789;SDS011;37287;47.554;7.844;2023-07-08T15:54:19;1.42;;;1.23;;
50789;SDS011;37287;47.554;7.844;2023-07-08T15:56:46;1.45;;;1.10;;
50789;SDS011;37287;47.554;7.844;2023-07-08T15:59:16;1.35;;;1.25;;
50789;SDS011;37287;47.554;7.844;2023-07-08T16:01:47;1.65;;;1.35;;
50789;SDS011;37287;47.554;7.844;2023-07-08T16:04:25;1.30;;;1.15;;
50789;SDS011;37287;47.554;7.844;2023-07-08T16:06:57;1.50;;;1.30;;
50789;SDS011;37287;47.554;7.844;2023-07-08T16:09:33;2.70;;;1.33;;
50789;SDS011;37287;47.554;7.844;2023-07-08T16:12:00;1.30;;;1.17;;
50789;SDS011;37287;47.554;7.844;2023-07-08T16:14:27;1.92;;;1.20;;
50789;SDS011;37287;47.554;7.844;2023-07-08T16:16:53;1.70;;;1.15;;
50789;SDS011;37287;47.554;7.844;2023-07-08T16:19:20;1.60;;;1.00;;
50789;SDS011;37287;47.554;7.844;2023-07-08T16:21:47;1.42;;;1.00;;
50789;SDS011;37287;47.554;7.844;2023-07-08T16:24:13;1.30;;;1.20;;
50789;SDS011;37287;47.554;7.844;2023-07-08T16:26:40;1.67;;;1.30;;
50789;SDS011;37287;47.554;7.844;2023-07-08T16:29:08;1.45;;;1.30;;
50789;SDS011;37287;47.554;7.844;2023-07-08T16:31:41;1.42;;;1.33;;
50789;SDS011;37287;47.554;7.844;2023-07-08T16:34:09;1.45;;;1.33;;
50789;SDS011;37287;47.554;7.844;2023-07-08T16:36:36;1.45;;;1.25;;
50789;SDS011;37287;47.554;7.844;2023-07-08T16:39:07;4.07;;;1.58;;
50789;SDS011;37287;47.554;7.844;2023-07-08T16:41:34;1.90;;;1.30;;
50789;SDS011;37287;47.554;7.844;2023-07-08T16:44:21;1.52;;;1.40;;
50789;SDS011;37287;47.554;7.844;2023-07-08T16:49:15;1.52;;;1.02;;
50789;SDS011;37287;47.554;7.844;2023-07-08T16:51:42;1.70;;;1.55;;
50789;SDS011;37287;47.554;7.844;2023-07-08T16:54:13;1.48;;;1.27;;
50789;SDS011;37287;47.554;7.844;2023-07-08T16:56:42;1.60;;;1.50;;
50789;SDS011;37287;47.554;7.844;2023-07-08T16:59:11;1.55;;;1.30;;
50789;SDS011;37287;47.554;7.844;2023-07-08T17:01:38;1.88;;;1.42;;
50789;SDS011;37287;47.554;7.844;2023-07-08T17:04:05;1.73;;;1.45;;
50789;SDS011;37287;47.554;7.844;2023-07-08T17:06:34;1.73;;;1.42;;
50789;SDS011;37287;47.554;7.844;2023-07-08T17:09:01;1.70;;;1.60;;
50789;SDS011;37287;47.554;7.844;2023-07-08T17:11:30;1.63;;;1.40;;
50789;SDS011;37287;47.554;7.844;2023-07-08T17:13:59;1.98;;;1.60;;
50789;SDS011;37287;47.554;7.844;2023-07-08T17:16:29;1.75;;;1.40;;
50789;SDS011;37287;47.554;7.844;2023-07-08T17:18:59;1.67;;;1.58;;
50789;SDS011;37287;47.554;7.844;2023-07-08T17:21:26;1.95;;;1.40;;
50789;SDS011;37287;47.554;7.844;2023-07-08T17:23:52;2.42;;;1.80;;